sensor_id;sensor_type;location;lat;lon;timestamp;pressure;altitude;pressure_sealevel;temperature;humidity
40502;BME280;29631;49.168;9.848;2023-05-27T00:00:07;97329.03;;;20.37;66.91
40502;BME280;29631;49.168;9.848;2023-05-27T00:02:34;97384.09;;;20.70;66.78
40502;BME280;29631;49.168;9.848;2023-05-27T00:05:00;97412.38;;;20.78;67.03
40502;BME280;29631;49.168;9.848;2023-05-27T00:07:26;97414.25;;;20.77;66.95
40502;BME280;29631;49.168;9.848;2023-05-27T00:09:53;97421.78;;;20.80;67.57
40502;BME280;29631;49.168;9.848;2023-05-27T00:12:19;97404.16;;;20.68;67.38
40502;BME280;29631;49.168;9.848;2023-05-27T00:14:45;97396.06;;;20.63;67.20
40502;BME280;29631;49.168;9.848;2023-05-27T00:17:11;97405.00;;;20.68;66.98
40502;BME280;29631;49.168;9.848;2023-05-27T00:19:43;97422.72;;;20.69;67.84
40502;BME280;29631;49.168;9.848;2023-05-27T00:22:11;97410.53;;;20.62;67.28
40502;BME280;29631;49.168;9.848;2023-05-27T00:24:37;97411.84;;;20.59;67.46
40502;BME280;29631;49.168;9.848;2023-05-27T00:27:05;97395.34;;;20.46;67.93
40502;BME280;29631;49.168;9.848;2023-05-27T00:29:32;97385.78;;;20.34;67.72
40502;BME280;29631;49.168;9.848;2023-05-27T00:32:00;97401.50;;;20.46;68.09
40502;BME280;29631;49.168;9.848;2023-05-27T00:34:28;97391.13;;;20.34;67.80
40502;BME280;29631;49.168;9.848;2023-05-27T00:36:54;97390.09;;;20.35;68.04
40502;BME280;29631;49.168;9.848;2023-05-27T00:39:20;97405.72;;;20.42;68.28
40502;BME280;29631;49.168;9.848;2023-05-27T00:41:49;97392.44;;;20.31;68.23
40502;BME280;29631;49.168;9.848;2023-05-27T00:44:16;97395.91;;;20.32;68.52
40502;BME280;29631;49.168;9.848;2023-05-27T00:46:47;97382.41;;;20.22;68.63
40502;BME280;29631;49.168;9.848;2023-05-27T00:49:13;97393.75;;;20.29;68.09
40502;BME280;29631;49.168;9.848;2023-05-27T00:51:39;97386.13;;;20.21;68.82
40502;BME280;29631;49.168;9.848;2023-05-27T00:54:07;97372.34;;;20.12;68.40
40502;BME280;29631;49.168;9.848;2023-05-27T00:56:33;97377.06;;;20.05;68.85
40502;BME280;29631;49.168;9.848;2023-05-27T00:58:59;97373.91;;;20.08;68.26
40502;BME280;29631;49.168;9.848;2023-05-27T01:01:25;97380.13;;;20.14;68.62
40502;BME280;29631;49.168;9.848;2023-05-27T01:03:51;97389.22;;;20.13;68.48
40502;BME280;29631;49.168;9.848;2023-05-27T01:07:03;97367.69;;;20.03;68.47
40502;BME280;29631;49.168;9.848;2023-05-27T01:09:55;97390.53;;;20.10;68.53
40502;BME280;29631;49.168;9.848;2023-05-27T01:12:37;97384.31;;;20.05;68.68
40502;BME280;29631;49.168;9.848;2023-05-27T01:15:06;97376.44;;;19.98;68.44
40502;BME280;29631;49.168;9.848;2023-05-27T01:17:33;97387.94;;;19.99;69.16
40502;BME280;29631;49.168;9.848;2023-05-27T01:20:04;97356.97;;;19.86;68.68
40502;BME280;29631;49.168;9.848;2023-05-27T01:22:32;97375.31;;;19.94;68.36
40502;BME280;29631;49.168;9.848;2023-05-27T01:24:58;97352.00;;;19.78;68.60
40502;BME280;29631;49.168;9.848;2023-05-27T01:27:23;97365.25;;;19.85;68.50
40502;BME280;29631;49.168;9.848;2023-05-27T01:29:53;97344.97;;;19.72;68.30
40502;BME280;29631;49.168;9.848;2023-05-27T01:37:35;97343.53;;;19.65;68.64
40502;BME280;29631;49.168;9.848;2023-05-27T01:40:03;97359.41;;;19.71;68.41
40502;BME280;29631;49.168;9.848;2023-05-27T01:42:38;97330.78;;;19.56;68.27
40502;BME280;29631;49.168;9.848;2023-05-27T01:45:06;97359.66;;;19.70;68.51
40502;BME280;29631;49.168;9.848;2023-05-27T01:47:32;97345.63;;;19.63;68.80
40502;BME280;29631;49.168;9.848;2023-05-27T01:49:58;97333.69;;;19.54;68.97
40502;BME280;29631;49.168;9.848;2023-05-27T01:52:24;97337.78;;;19.57;68.71
40502;BME280;29631;49.168;9.848;2023-05-27T01:54:50;97365.91;;;19.59;68.76
40502;BME280;29631;49.168;9.848;2023-05-27T01:57:17;97353.06;;;19.61;68.86
40502;BME280;29631;49.168;9.848;2023-05-27T01:59:43;97324.47;;;19.45;68.15
40502;BME280;29631;49.168;9.848;2023-05-27T02:02:08;97337.66;;;19.52;69.06
40502;BME280;29631;49.168;9.848;2023-05-27T02:04:34;97304.78;;;19.18;69.22
40502;BME280;29631;49.168;9.848;2023-05-27T02:07:00;97300.72;;;19.16;68.81
40502;BME280;29631;49.168;9.848;2023-05-27T02:09:26;97332.50;;;19.45;68.79
40502;BME280;29631;49.168;9.848;2023-05-27T02:11:52;97329.75;;;19.40;69.17
40502;BME280;29631;49.168;9.848;2023-05-27T02:14:17;97314.69;;;19.34;68.96
40502;BME280;29631;49.168;9.848;2023-05-27T02:16:44;97331.34;;;19.41;69.18
40502;BME280;29631;49.168;9.848;2023-05-27T02:19:10;97320.91;;;19.40;69.11
40502;BME280;29631;49.168;9.848;2023-05-27T02:21:35;97327.53;;;19.37;68.67
40502;BME280;29631;49.168;9.848;2023-05-27T02:24:05;97331.84;;;19.38;69.30
40502;BME280;29631;49.168;9.848;2023-05-27T02:26:30;97327.53;;;19.37;68.96
40502;BME280;29631;49.168;9.848;2023-05-27T02:28:56;97343.53;;;19.32;68.95
40502;BME280;29631;49.168;9.848;2023-05-27T02:31:22;97340.25;;;19.30;68.98
40502;BME280;29631;49.168;9.848;2023-05-27T02:33:48;97346.13;;;19.27;69.03
40502;BME280;29631;49.168;9.848;2023-05-27T02:36:13;97307.72;;;19.05;68.80
40502;BME280;29631;49.168;9.848;2023-05-27T02:38:39;97358.06;;;19.25;68.77
40502;BME280;29631;49.168;9.848;2023-05-27T02:41:05;97343.00;;;19.19;68.83
40502;BME280;29631;49.168;9.848;2023-05-27T02:43:31;97319.00;;;19.07;69.01
40502;BME280;29631;49.168;9.848;2023-05-27T02:45:57;97313.31;;;19.04;69.29
40502;BME280;29631;49.168;9.848;2023-05-27T02:48:22;97321.56;;;19.02;69.37
40502;BME280;29631;49.168;9.848;2023-05-27T02:50:48;97335.50;;;19.04;69.54
40502;BME280;29631;49.168;9.848;2023-05-27T02:53:14;97316.63;;;18.94;69.27
40502;BME280;29631;49.168;9.848;2023-05-27T02:55:40;97305.50;;;18.86;69.38
40502;BME280;29631;49.168;9.848;2023-05-27T02:58:06;97275.78;;;18.66;69.07
40502;BME280;29631;49.168;9.848;2023-05-27T03:00:33;97325.19;;;18.96;69.58
40502;BME280;29631;49.168;9.848;2023-05-27T03:02:59;97339.72;;;19.00;69.76
40502;BME280;29631;49.168;9.848;2023-05-27T03:05:25;97331.03;;;18.93;69.32
40502;BME280;29631;49.168;9.848;2023-05-27T03:07:51;97309.13;;;18.80;70.04
40502;BME280;29631;49.168;9.848;2023-05-27T03:10:16;97343.91;;;18.96;69.47
40502;BME280;29631;49.168;9.848;2023-05-27T03:12:42;97338.47;;;18.92;69.74
40502;BME280;29631;49.168;9.848;2023-05-27T03:15:08;97314.38;;;18.75;69.94
40502;BME280;29631;49.168;9.848;2023-05-27T03:17:37;97347.53;;;18.91;69.85
40502;BME280;29631;49.168;9.848;2023-05-27T03:20:04;97346.03;;;18.94;70.30
40502;BME280;29631;49.168;9.848;2023-05-27T03:22:32;97334.69;;;18.88;70.07
40502;BME280;29631;49.168;9.848;2023-05-27T03:24:58;97349.41;;;18.90;69.91
40502;BME280;29631;49.168;9.848;2023-05-27T03:27:24;97342.78;;;18.92;70.06
40502;BME280;29631;49.168;9.848;2023-05-27T03:29:50;97318.59;;;18.71;70.52
40502;BME280;29631;49.168;9.848;2023-05-27T03:32:16;97336.34;;;18.77;70.07
40502;BME280;29631;49.168;9.848;2023-05-27T03:34:42;97340.97;;;18.82;69.65
40502;BME280;29631;49.168;9.848;2023-05-27T03:37:07;97344.13;;;18.79;69.94
40502;BME280;29631;49.168;9.848;2023-05-27T03:39:33;97349.47;;;18.79;70.44
40502;BME280;29631;49.168;9.848;2023-05-27T03:41:59;97314.34;;;18.59;70.13
40502;BME280;29631;49.168;9.848;2023-05-27T03:44:25;97317.59;;;18.61;70.01
40502;BME280;29631;49.168;9.848;2023-05-27T03:46:51;97330.47;;;18.64;70.85
40502;BME280;29631;49.168;9.848;2023-05-27T03:49:17;97344.28;;;18.72;70.65
40502;BME280;29631;49.168;9.848;2023-05-27T03:51:43;97325.97;;;18.53;70.65
40502;BME280;29631;49.168;9.848;2023-05-27T03:54:08;97358.91;;;18.70;70.62
40502;BME280;29631;49.168;9.848;2023-05-27T03:56:34;97334.09;;;18.58;71.10
40502;BME280;29631;49.168;9.848;2023-05-27T03:59:00;97320.19;;;18.56;71.00
40502;BME280;29631;49.168;9.848;2023-05-27T04:01:26;97280.25;;;18.22;71.02
40502;BME280;29631;49.168;9.848;2023-05-27T04:03:53;97334.09;;;18.58;71.07
40502;BME280;29631;49.168;9.848;2023-05-27T04:06:18;97332.38;;;18.52;71.33
40502;BME280;29631;49.168;9.848;2023-05-27T04:08:44;97325.31;;;18.46;71.18
40502;BME280;29631;49.168;9.848;2023-05-27T04:11:12;97326.94;;;18.47;71.49
40502;BME280;29631;49.168;9.848;2023-05-27T04:13:38;97247.56;;;17.92;70.96
40502;BME280;29631;49.168;9.848;2023-05-27T04:16:04;97295.06;;;18.17;71.11
40502;BME280;29631;49.168;9.848;2023-05-27T04:18:31;97326.47;;;18.50;71.52
40502;BME280;29631;49.168;9.848;2023-05-27T04:20:56;97335.38;;;18.55;71.60
40502;BME280;29631;49.168;9.848;2023-05-27T04:23:24;97321.59;;;18.47;70.98
40502;BME280;29631;49.168;9.848;2023-05-27T04:25:49;97328.56;;;18.48;71.49
40502;BME280;29631;49.168;9.848;2023-05-27T04:28:17;97335.03;;;18.52;71.42
40502;BME280;29631;49.168;9.848;2023-05-27T04:30:43;97306.19;;;18.37;71.35
40502;BME280;29631;49.168;9.848;2023-05-27T04:33:12;97315.47;;;18.35;71.03
40502;BME280;29631;49.168;9.848;2023-05-27T04:35:39;97322.88;;;18.44;71.31
40502;BME280;29631;49.168;9.848;2023-05-27T04:38:10;97330.53;;;18.52;70.67
40502;BME280;29631;49.168;9.848;2023-05-27T04:40:42;97327.59;;;18.54;70.83
40502;BME280;29631;49.168;9.848;2023-05-27T04:43:11;97338.28;;;18.54;70.81
40502;BME280;29631;49.168;9.848;2023-05-27T04:45:40;97308.50;;;18.34;70.76
40502;BME280;29631;49.168;9.848;2023-05-27T04:48:06;97342.50;;;18.50;71.04
40502;BME280;29631;49.168;9.848;2023-05-27T04:50:31;97328.56;;;18.48;71.17
40502;BME280;29631;49.168;9.848;2023-05-27T04:52:57;97311.41;;;18.44;70.64
40502;BME280;29631;49.168;9.848;2023-05-27T04:55:23;97322.72;;;18.51;70.90
40502;BME280;29631;49.168;9.848;2023-05-27T04:57:49;97336.53;;;18.59;70.59
40502;BME280;29631;49.168;9.848;2023-05-27T05:00:15;97326.66;;;18.60;70.76
40502;BME280;29631;49.168;9.848;2023-05-27T05:02:48;97326.31;;;18.56;70.66
40502;BME280;29631;49.168;9.848;2023-05-27T05:05:14;97338.47;;;18.64;70.48
40502;BME280;29631;49.168;9.848;2023-05-27T05:07:41;97327.94;;;18.57;70.93
40502;BME280;29631;49.168;9.848;2023-05-27T05:10:10;97334.75;;;18.65;70.74
40502;BME280;29631;49.168;9.848;2023-05-27T05:12:37;97304.56;;;18.36;71.10
40502;BME280;29631;49.168;9.848;2023-05-27T05:15:04;97293.06;;;18.36;71.01
40502;BME280;29631;49.168;9.848;2023-05-27T05:17:30;97329.41;;;18.65;70.48
40502;BME280;29631;49.168;9.848;2023-05-27T05:19:56;97330.25;;;18.65;70.84
40502;BME280;29631;49.168;9.848;2023-05-27T05:22:22;97337.84;;;18.73;70.42
40502;BME280;29631;49.168;9.848;2023-05-27T05:24:52;97351.66;;;18.82;70.71
40502;BME280;29631;49.168;9.848;2023-05-27T05:27:17;97345.50;;;18.81;70.32
40502;BME280;29631;49.168;9.848;2023-05-27T05:29:43;97336.59;;;18.76;70.32
40502;BME280;29631;49.168;9.848;2023-05-27T05:32:10;97349.78;;;18.82;70.36
40502;BME280;29631;49.168;9.848;2023-05-27T05:34:37;97349.34;;;18.85;70.54
40502;BME280;29631;49.168;9.848;2023-05-27T05:37:04;97357.69;;;18.89;69.91
40502;BME280;29631;49.168;9.848;2023-05-27T05:39:30;97359.28;;;18.90;70.09
40502;BME280;29631;49.168;9.848;2023-05-27T05:41:56;97353.94;;;18.90;70.25
40502;BME280;29631;49.168;9.848;2023-05-27T05:44:24;97361.47;;;18.92;70.32
40502;BME280;29631;49.168;9.848;2023-05-27T05:46:50;97352.09;;;18.90;70.32
40502;BME280;29631;49.168;9.848;2023-05-27T05:49:17;97348.91;;;18.93;70.33
40502;BME280;29631;49.168;9.848;2023-05-27T05:51:43;97349.25;;;18.96;70.48
40502;BME280;29631;49.168;9.848;2023-05-27T05:54:09;97326.41;;;18.89;70.37
40502;BME280;29631;49.168;9.848;2023-05-27T05:56:35;97354.78;;;19.06;70.46
40502;BME280;29631;49.168;9.848;2023-05-27T05:59:01;97367.81;;;19.14;70.44
40502;BME280;29631;49.168;9.848;2023-05-27T06:01:27;97357.91;;;19.15;71.18
40502;BME280;29631;49.168;9.848;2023-05-27T06:03:53;97356.63;;;19.17;70.40
40502;BME280;29631;49.168;9.848;2023-05-27T06:06:19;97332.94;;;19.09;70.62
40502;BME280;29631;49.168;9.848;2023-05-27T06:08:45;97354.03;;;19.22;70.55
40502;BME280;29631;49.168;9.848;2023-05-27T06:11:11;97334.44;;;19.17;70.65
40502;BME280;29631;49.168;9.848;2023-05-27T06:13:37;97348.94;;;19.37;70.62
40502;BME280;29631;49.168;9.848;2023-05-27T06:16:03;97365.06;;;19.42;70.66
40502;BME280;29631;49.168;9.848;2023-05-27T06:18:28;97357.63;;;19.44;70.85
40502;BME280;29631;49.168;9.848;2023-05-27T06:20:54;97320.81;;;19.18;70.90
40502;BME280;29631;49.168;9.848;2023-05-27T06:23:20;97304.78;;;19.18;71.11
40502;BME280;29631;49.168;9.848;2023-05-27T06:25:46;97358.94;;;19.58;70.77
40502;BME280;29631;49.168;9.848;2023-05-27T06:28:12;97351.94;;;19.57;70.99
40502;BME280;29631;49.168;9.848;2023-05-27T06:30:37;97345.28;;;19.60;70.83
40502;BME280;29631;49.168;9.848;2023-05-27T06:33:03;97347.25;;;19.64;70.83
40502;BME280;29631;49.168;9.848;2023-05-27T06:35:29;97359.56;;;19.81;71.05
40502;BME280;29631;49.168;9.848;2023-05-27T06:37:55;97340.50;;;19.78;71.37
40502;BME280;29631;49.168;9.848;2023-05-27T06:40:21;97324.34;;;19.73;71.32
40502;BME280;29631;49.168;9.848;2023-05-27T06:42:46;97344.47;;;19.92;71.20
40502;BME280;29631;49.168;9.848;2023-05-27T06:45:12;97346.19;;;19.98;71.19
40502;BME280;29631;49.168;9.848;2023-05-27T06:47:39;97313.34;;;19.69;71.00
40502;BME280;29631;49.168;9.848;2023-05-27T06:50:05;97346.88;;;20.10;71.71
40502;BME280;29631;49.168;9.848;2023-05-27T06:52:31;97343.06;;;20.06;71.34
40502;BME280;29631;49.168;9.848;2023-05-27T06:54:57;97333.75;;;20.08;70.88
40502;BME280;29631;49.168;9.848;2023-05-27T06:57:22;97358.34;;;20.27;71.07
40502;BME280;29631;49.168;9.848;2023-05-27T06:59:48;97348.47;;;20.27;71.24
40502;BME280;29631;49.168;9.848;2023-05-27T07:02:14;97363.09;;;20.41;71.20
40502;BME280;29631;49.168;9.848;2023-05-27T07:04:39;97356.50;;;20.48;71.22
40502;BME280;29631;49.168;9.848;2023-05-27T07:07:05;97310.09;;;20.22;71.27
40502;BME280;29631;49.168;9.848;2023-05-27T07:09:31;97348.53;;;20.53;71.42
40502;BME280;29631;49.168;9.848;2023-05-27T07:11:57;97366.91;;;20.66;71.31
40502;BME280;29631;49.168;9.848;2023-05-27T07:14:22;97358.38;;;20.69;71.40
40502;BME280;29631;49.168;9.848;2023-05-27T07:16:48;97360.63;;;20.77;71.44
40502;BME280;29631;49.168;9.848;2023-05-27T07:19:14;97357.50;;;20.85;71.20
40502;BME280;29631;49.168;9.848;2023-05-27T07:21:40;97349.19;;;20.87;71.58
40502;BME280;29631;49.168;9.848;2023-05-27T07:24:05;97366.81;;;21.04;70.92
40502;BME280;29631;49.168;9.848;2023-05-27T07:26:32;97342.53;;;20.89;71.31
40502;BME280;29631;49.168;9.848;2023-05-27T07:29:00;97365.81;;;21.10;71.54
40502;BME280;29631;49.168;9.848;2023-05-27T07:31:27;97365.94;;;21.20;70.98
40502;BME280;29631;49.168;9.848;2023-05-27T07:33:53;97360.59;;;21.25;71.52
40502;BME280;29631;49.168;9.848;2023-05-27T07:36:19;97341.81;;;21.25;71.40
40502;BME280;29631;49.168;9.848;2023-05-27T07:38:45;97342.75;;;21.40;71.69
40502;BME280;29631;49.168;9.848;2023-05-27T07:41:12;97352.22;;;21.48;71.55
40502;BME280;29631;49.168;9.848;2023-05-27T07:43:38;97322.06;;;21.36;71.31
40502;BME280;29631;49.168;9.848;2023-05-27T07:46:03;97321.59;;;21.44;71.47
40502;BME280;29631;49.168;9.848;2023-05-27T07:48:29;97293.88;;;21.33;71.83
40502;BME280;29631;49.168;9.848;2023-05-27T07:50:55;97324.66;;;21.57;71.72
40502;BME280;29631;49.168;9.848;2023-05-27T07:53:21;97342.34;;;21.85;71.44
40502;BME280;29631;49.168;9.848;2023-05-27T07:55:47;97349.91;;;21.92;71.62
40502;BME280;29631;49.168;9.848;2023-05-27T07:58:13;97345.09;;;21.99;71.65
40502;BME280;29631;49.168;9.848;2023-05-27T08:00:39;97321.94;;;21.89;71.65
40502;BME280;29631;49.168;9.848;2023-05-27T08:03:04;97329.56;;;22.06;71.83
40502;BME280;29631;49.168;9.848;2023-05-27T08:05:31;97353.88;;;22.26;71.93
40502;BME280;29631;49.168;9.848;2023-05-27T08:07:58;97348.06;;;22.39;71.62
40502;BME280;29631;49.168;9.848;2023-05-27T08:10:25;97326.53;;;22.34;71.63
40502;BME280;29631;49.168;9.848;2023-05-27T08:12:51;97330.88;;;22.45;71.83
40502;BME280;29631;49.168;9.848;2023-05-27T08:15:17;97338.47;;;22.58;71.96
40502;BME280;29631;49.168;9.848;2023-05-27T08:17:43;97335.78;;;22.63;71.86
40502;BME280;29631;49.168;9.848;2023-05-27T08:20:10;97306.19;;;22.58;71.97
40502;BME280;29631;49.168;9.848;2023-05-27T08:22:37;97328.88;;;22.82;71.72
40502;BME280;29631;49.168;9.848;2023-05-27T08:25:03;97324.03;;;22.89;71.50
40502;BME280;29631;49.168;9.848;2023-05-27T08:27:49;97338.06;;;23.01;72.03
40502;BME280;29631;49.168;9.848;2023-05-27T08:30:16;97330.56;;;23.08;72.05
40502;BME280;29631;49.168;9.848;2023-05-27T08:32:42;97328.41;;;23.10;71.59
40502;BME280;29631;49.168;9.848;2023-05-27T08:35:09;97308.50;;;23.11;71.34
40502;BME280;29631;49.168;9.848;2023-05-27T08:37:35;97333.81;;;23.30;71.03
40502;BME280;29631;49.168;9.848;2023-05-27T08:40:04;97300.47;;;23.26;71.48
40502;BME280;29631;49.168;9.848;2023-05-27T08:42:33;97310.69;;;23.43;71.44
40502;BME280;29631;49.168;9.848;2023-05-27T08:44:59;97303.16;;;23.45;71.29
40502;BME280;29631;49.168;9.848;2023-05-27T08:47:29;97318.22;;;23.61;71.71
40502;BME280;29631;49.168;9.848;2023-05-27T08:49:57;97293.19;;;23.61;71.63
40502;BME280;29631;49.168;9.848;2023-05-27T08:52:30;97314.47;;;23.72;71.36
40502;BME280;29631;49.168;9.848;2023-05-27T08:55:00;97308.53;;;23.80;71.50
40502;BME280;29631;49.168;9.848;2023-05-27T08:57:31;97291.28;;;23.71;71.05
40502;BME280;29631;49.168;9.848;2023-05-27T08:59:58;97291.28;;;23.86;71.30
40502;BME280;29631;49.168;9.848;2023-05-27T09:02:24;97299.88;;;23.93;71.37
40502;BME280;29631;49.168;9.848;2023-05-27T09:04:51;97287.47;;;24.02;71.24
40502;BME280;29631;49.168;9.848;2023-05-27T09:07:19;97307.91;;;24.18;71.71
40502;BME280;29631;49.168;9.848;2023-05-27T09:09:58;97309.22;;;24.30;71.25
40502;BME280;29631;49.168;9.848;2023-05-27T09:12:25;97295.44;;;24.37;71.15
40502;BME280;29631;49.168;9.848;2023-05-27T09:14:52;97253.22;;;24.08;70.59
40502;BME280;29631;49.168;9.848;2023-05-27T09:17:22;97279.25;;;24.37;71.02
40502;BME280;29631;49.168;9.848;2023-05-27T09:19:53;97288.41;;;24.51;70.77
40502;BME280;29631;49.168;9.848;2023-05-27T09:22:30;97255.56;;;24.34;70.37
40502;BME280;29631;49.168;9.848;2023-05-27T09:24:56;97267.38;;;24.48;70.44
40502;BME280;29631;49.168;9.848;2023-05-27T09:27:30;97285.06;;;24.74;70.38
40502;BME280;29631;49.168;9.848;2023-05-27T09:30:05;97264.25;;;24.74;70.19
40502;BME280;29631;49.168;9.848;2023-05-27T09:32:32;97278.78;;;24.83;70.42
40502;BME280;29631;49.168;9.848;2023-05-27T09:35:00;97294.09;;;24.97;70.26
40502;BME280;29631;49.168;9.848;2023-05-27T09:37:29;97280.59;;;24.97;70.94
40502;BME280;29631;49.168;9.848;2023-05-27T09:39:59;97229.47;;;24.73;70.75
40502;BME280;29631;49.168;9.848;2023-05-27T09:42:26;97304.75;;;25.22;70.88
40502;BME280;29631;49.168;9.848;2023-05-27T09:44:54;97292.81;;;25.28;70.06
40502;BME280;29631;49.168;9.848;2023-05-27T09:47:21;97276.59;;;25.28;70.17
40502;BME280;29631;49.168;9.848;2023-05-27T09:49:49;97285.16;;;25.40;70.27
40502;BME280;29631;49.168;9.848;2023-05-27T09:52:18;97273.78;;;25.43;70.07
40502;BME280;29631;49.168;9.848;2023-05-27T09:54:47;97275.59;;;25.53;70.10
40502;BME280;29631;49.168;9.848;2023-05-27T09:57:14;97265.56;;;25.58;69.96
40502;BME280;29631;49.168;9.848;2023-05-27T09:59:41;97269.47;;;25.70;69.45
40502;BME280;29631;49.168;9.848;2023-05-27T10:02:07;97260.56;;;25.75;69.62
40502;BME280;29631;49.168;9.848;2023-05-27T10:04:33;97256.72;;;25.81;69.69
40502;BME280;29631;49.168;9.848;2023-05-27T10:06:59;97252.63;;;25.83;69.44
40502;BME280;29631;49.168;9.848;2023-05-27T10:09:27;97254.94;;;25.95;69.72
40502;BME280;29631;49.168;9.848;2023-05-27T10:11:53;97252.78;;;25.97;69.36
40502;BME280;29631;49.168;9.848;2023-05-27T10:14:20;97268.31;;;26.10;68.96
40502;BME280;29631;49.168;9.848;2023-05-27T10:16:55;97245.84;;;26.09;68.62
40502;BME280;29631;49.168;9.848;2023-05-27T10:19:21;97256.84;;;26.18;68.52
40502;BME280;29631;49.168;9.848;2023-05-27T10:21:47;97232.34;;;26.09;68.55
40502;BME280;29631;49.168;9.848;2023-05-27T10:24:13;97250.72;;;26.31;68.78
40502;BME280;29631;49.168;9.848;2023-05-27T10:26:41;97240.22;;;26.29;68.08
40502;BME280;29631;49.168;9.848;2023-05-27T10:29:16;97201.91;;;25.99;68.32
40502;BME280;29631;49.168;9.848;2023-05-27T10:31:50;97245.25;;;26.41;67.90
40502;BME280;29631;49.168;9.848;2023-05-27T10:34:17;97187.41;;;26.13;68.10
40502;BME280;29631;49.168;9.848;2023-05-27T10:36:47;97246.63;;;26.56;67.82
40502;BME280;29631;49.168;9.848;2023-05-27T10:39:24;97254.03;;;26.69;67.63
40502;BME280;29631;49.168;9.848;2023-05-27T10:41:52;97226.59;;;26.57;67.42
40502;BME280;29631;49.168;9.848;2023-05-27T10:44:33;97226.03;;;26.60;67.16
40502;BME280;29631;49.168;9.848;2023-05-27T10:47:03;97249.22;;;26.85;67.50
40502;BME280;29631;49.168;9.848;2023-05-27T10:49:37;97240.81;;;26.86;67.75
40502;BME280;29631;49.168;9.848;2023-05-27T10:52:08;97215.19;;;26.79;67.40
40502;BME280;29631;49.168;9.848;2023-05-27T10:54:48;97241.47;;;26.97;67.31
40502;BME280;29631;49.168;9.848;2023-05-27T10:57:17;97221.56;;;26.88;66.78
40502;BME280;29631;49.168;9.848;2023-05-27T10:59:54;97227.63;;;26.98;66.78
40502;BME280;29631;49.168;9.848;2023-05-27T11:02:21;97224.66;;;27.00;66.42
40502;BME280;29631;49.168;9.848;2023-05-27T11:04:49;97190.25;;;26.82;66.49
40502;BME280;29631;49.168;9.848;2023-05-27T11:07:19;97231.81;;;27.09;66.01
40502;BME280;29631;49.168;9.848;2023-05-27T11:09:53;97234.22;;;27.11;65.62
40502;BME280;29631;49.168;9.848;2023-05-27T11:12:23;97205.34;;;27.06;65.52
40502;BME280;29631;49.168;9.848;2023-05-27T11:14:54;97223.81;;;27.17;65.30
40502;BME280;29631;49.168;9.848;2023-05-27T11:17:22;97220.22;;;27.22;65.41
40502;BME280;29631;49.168;9.848;2023-05-27T11:19:49;97229.78;;;27.33;65.10
40502;BME280;29631;49.168;9.848;2023-05-27T11:22:16;97179.25;;;27.10;64.73
40502;BME280;29631;49.168;9.848;2023-05-27T11:24:54;97202.69;;;27.33;64.79
40502;BME280;29631;49.168;9.848;2023-05-27T11:27:20;97207.34;;;27.46;64.83
40502;BME280;29631;49.168;9.848;2023-05-27T11:29:51;97205.75;;;27.45;63.90
40502;BME280;29631;49.168;9.848;2023-05-27T11:32:18;97213.69;;;27.55;64.38
40502;BME280;29631;49.168;9.848;2023-05-27T11:34:45;97175.03;;;27.36;63.90
40502;BME280;29631;49.168;9.848;2023-05-27T11:37:11;97195.72;;;27.59;63.86
40502;BME280;29631;49.168;9.848;2023-05-27T11:39:38;97178.66;;;27.58;63.35
40502;BME280;29631;49.168;9.848;2023-05-27T11:42:14;97186.47;;;27.65;63.52
40502;BME280;29631;49.168;9.848;2023-05-27T11:44:53;97193.81;;;27.78;63.47
40502;BME280;29631;49.168;9.848;2023-05-27T11:47:19;97189.06;;;27.83;63.77
40502;BME280;29631;49.168;9.848;2023-05-27T11:49:49;97162.66;;;27.75;63.63
40502;BME280;29631;49.168;9.848;2023-05-27T11:52:16;97191.09;;;27.91;63.59
40502;BME280;29631;49.168;9.848;2023-05-27T11:54:41;97184.13;;;27.98;63.62
40502;BME280;29631;49.168;9.848;2023-05-27T11:57:07;97158.44;;;27.83;63.52
40502;BME280;29631;49.168;9.848;2023-05-27T11:59:36;97178.03;;;28.06;63.33
40502;BME280;29631;49.168;9.848;2023-05-27T12:02:02;97140.97;;;27.89;63.33
40502;BME280;29631;49.168;9.848;2023-05-27T12:04:30;97179.41;;;28.17;63.39
40502;BME280;29631;49.168;9.848;2023-05-27T12:06:56;97180.16;;;28.23;63.35
40502;BME280;29631;49.168;9.848;2023-05-27T12:09:23;97162.03;;;28.18;63.19
40502;BME280;29631;49.168;9.848;2023-05-27T12:11:49;97165.28;;;28.20;62.68
40502;BME280;29631;49.168;9.848;2023-05-27T12:14:15;97127.06;;;28.03;63.01
40502;BME280;29631;49.168;9.848;2023-05-27T12:16:41;97119.66;;;28.09;62.63
40502;BME280;29631;49.168;9.848;2023-05-27T12:19:06;97158.41;;;28.36;62.89
40502;BME280;29631;49.168;9.848;2023-05-27T12:21:32;97155.09;;;28.39;62.71
40502;BME280;29631;49.168;9.848;2023-05-27T12:23:58;97135.13;;;28.35;62.56
40502;BME280;29631;49.168;9.848;2023-05-27T12:26:24;97140.50;;;28.49;62.64
40502;BME280;29631;49.168;9.848;2023-05-27T12:28:50;97139.72;;;28.48;62.15
40502;BME280;29631;49.168;9.848;2023-05-27T12:31:16;97088.28;;;28.16;62.36
40502;BME280;29631;49.168;9.848;2023-05-27T12:33:42;97133.66;;;28.51;62.04
40502;BME280;29631;49.168;9.848;2023-05-27T12:36:08;97136.25;;;28.56;61.90
40502;BME280;29631;49.168;9.848;2023-05-27T12:38:34;97106.84;;;28.36;61.82
40502;BME280;29631;49.168;9.848;2023-05-27T12:40:59;97107.13;;;28.48;61.70
40502;BME280;29631;49.168;9.848;2023-05-27T12:43:25;97122.06;;;28.59;61.68
40502;BME280;29631;49.168;9.848;2023-05-27T12:45:51;97087.25;;;28.39;61.42
40502;BME280;29631;49.168;9.848;2023-05-27T12:48:18;97103.75;;;28.65;61.47
40502;BME280;29631;49.168;9.848;2023-05-27T12:50:44;97109.06;;;28.69;60.72
40502;BME280;29631;49.168;9.848;2023-05-27T12:53:10;97058.94;;;28.32;60.98
40502;BME280;29631;49.168;9.848;2023-05-27T12:55:36;97086.00;;;28.45;60.82
40502;BME280;29631;49.168;9.848;2023-05-27T12:58:03;97107.63;;;28.72;61.29
40502;BME280;29631;49.168;9.848;2023-05-27T13:00:29;97085.84;;;28.64;60.71
40502;BME280;29631;49.168;9.848;2023-05-27T13:02:54;97094.06;;;28.72;60.84
40502;BME280;29631;49.168;9.848;2023-05-27T13:05:20;97104.00;;;28.76;60.92